createdAt,value
2019-02-14T00:00:02.951Z,1018.67
2019-02-14T00:01:02.966Z,1018.67
2019-02-14T00:02:03.996Z,1018.69
2019-02-14T00:03:03.001Z,1018.72
2019-02-14T00:04:04.033Z,1018.75
2019-02-14T00:05:03.038Z,1018.76
2019-02-14T00:06:03.048Z,1018.79
2019-02-14T00:07:04.070Z,1018.78
2019-02-14T00:08:03.076Z,1018.79
2019-02-14T00:09:04.105Z,1018.83
2019-02-14T00:10:03.135Z,1018.81
2019-02-14T00:11:03.130Z,1018.83
2019-02-14T00:12:04.159Z,1018.85
2019-02-14T00:13:03.164Z,1018.86
2019-02-14T00:14:04.190Z,1018.88
2019-02-14T00:15:03.190Z,1018.88
2019-02-14T00:16:03.205Z,1018.92
2019-02-14T00:17:04.235Z,1018.91
2019-02-14T00:18:03.248Z,1018.93
2019-02-14T00:19:04.264Z,1018.96
2019-02-14T00:20:03.275Z,1018.94
2019-02-14T00:21:03.323Z,1018.97
2019-02-14T00:22:04.321Z,1019.00
2019-02-14T00:23:03.325Z,1018.99
2019-02-14T00:24:04.352Z,1019.00
2019-02-14T00:25:03.353Z,1019.02
2019-02-14T00:26:03.371Z,1019.00
2019-02-14T00:27:04.398Z,1019.03
2019-02-14T00:28:03.425Z,1019.05
2019-02-14T00:29:04.430Z,1019.07
2019-02-14T00:30:03.438Z,1019.06
2019-02-14T00:31:03.452Z,1019.10
2019-02-14T00:32:04.477Z,1019.11
2019-02-14T00:33:03.480Z,1019.10
2019-02-14T00:34:04.522Z,1019.09
2019-02-14T00:35:03.527Z,1019.09
2019-02-14T00:36:03.536Z,1019.14
2019-02-14T00:37:04.563Z,1019.12
2019-02-14T00:38:03.575Z,1019.13
2019-02-14T00:39:04.595Z,1019.17
2019-02-14T00:40:03.592Z,1019.20
2019-02-14T00:41:03.632Z,1019.18
2019-02-14T00:42:04.639Z,1019.20
2019-02-14T00:43:03.644Z,1019.17
2019-02-14T00:44:04.675Z,1019.19
2019-02-14T00:45:03.680Z,1019.19
2019-02-14T00:46:03.699Z,1019.21
2019-02-14T00:47:04.720Z,1019.21
2019-02-14T00:48:03.721Z,1019.26
2019-02-14T00:49:04.752Z,1019.23
2019-02-14T00:50:03.759Z,1019.23
2019-02-14T00:51:03.783Z,1019.23
2019-02-14T00:52:04.799Z,1019.27
2019-02-14T00:53:03.842Z,1019.29
2019-02-14T00:54:04.841Z,1019.30
2019-02-14T00:55:03.842Z,1019.35
2019-02-14T00:56:03.865Z,1019.31
2019-02-14T00:57:04.889Z,1019.34
2019-02-14T00:58:03.894Z,1019.39
2019-02-14T00:59:04.921Z,1019.37
2019-02-14T01:00:03.927Z,1019.38
2019-02-14T01:01:03.948Z,1019.41
2019-02-14T01:02:04.965Z,1019.41
2019-02-14T01:03:03.969Z,1019.43
2019-02-14T01:04:05.002Z,1019.42
2019-02-14T01:05:04.004Z,1019.43
2019-02-14T01:06:04.028Z,1019.48
2019-02-14T01:07:05.045Z,1019.49
2019-02-14T01:08:04.055Z,1019.50
2019-02-14T01:09:05.099Z,1019.50
2019-02-14T01:10:04.084Z,1019.50
2019-02-14T01:11:04.130Z,1019.48
2019-02-14T01:12:05.132Z,1019.48
2019-02-14T01:13:04.140Z,1019.53
2019-02-14T01:14:05.165Z,1019.52
2019-02-14T01:15:04.171Z,1019.55
2019-02-14T01:16:05.293Z,1019.55
2019-02-14T01:17:05.367Z,1019.55
2019-02-14T01:18:04.221Z,1019.57
2019-02-14T01:19:05.246Z,1019.59
2019-02-14T01:20:04.255Z,1019.61
2019-02-14T01:21:04.271Z,1019.61
2019-02-14T01:22:05.297Z,1019.63
2019-02-14T01:23:04.302Z,1019.63
2019-02-14T01:24:05.334Z,1019.59
2019-02-14T01:25:04.336Z,1019.61
2019-02-14T01:26:04.354Z,1019.66
2019-02-14T01:27:05.376Z,1019.66
2019-02-14T01:28:04.404Z,1019.69
2019-02-14T01:29:05.412Z,1019.69
2019-02-14T01:30:04.423Z,1019.70
2019-02-14T01:31:04.442Z,1019.68
2019-02-14T01:32:05.472Z,1019.69
2019-02-14T01:33:04.466Z,1019.68
2019-02-14T01:34:05.501Z,1019.75
2019-02-14T01:35:04.502Z,1019.76
2019-02-14T01:36:04.522Z,1019.74
2019-02-14T01:37:05.543Z,1019.78
2019-02-14T01:38:04.548Z,1019.79
2019-02-14T01:39:05.578Z,1019.80
2019-02-14T01:40:04.586Z,1019.81
2019-02-14T01:41:04.603Z,1019.89
2019-02-14T01:42:05.636Z,1019.90
2019-02-14T01:43:04.636Z,1019.94
2019-02-14T01:44:05.657Z,1019.96
2019-02-14T01:45:04.671Z,1019.96
2019-02-14T01:46:04.685Z,1019.90
2019-02-14T01:47:05.716Z,1019.96
2019-02-14T01:48:04.716Z,1019.97
2019-02-14T01:49:05.744Z,1019.95
2019-02-14T01:50:04.757Z,1019.98
2019-02-14T01:51:04.766Z,1019.96
2019-02-14T01:52:05.794Z,1020.01
2019-02-14T01:53:04.871Z,1020.00
2019-02-14T01:54:05.828Z,1019.96
2019-02-14T01:55:04.835Z,1019.99
2019-02-14T01:56:04.852Z,1019.98
2019-02-14T01:57:05.885Z,1019.99
2019-02-14T01:58:04.884Z,1020.00
2019-02-14T01:59:05.915Z,1020.01
2019-02-14T02:00:04.917Z,1020.00
2019-02-14T02:01:04.932Z,1020.02
2019-02-14T02:02:05.962Z,1020.01
2019-02-14T02:03:04.968Z,1020.01
2019-02-14T02:04:05.994Z,1020.05
2019-02-14T02:05:05.002Z,1020.03
2019-02-14T02:06:05.041Z,1020.07
2019-02-14T02:07:06.056Z,1020.03
2019-02-14T02:08:05.059Z,1020.05
2019-02-14T02:09:06.078Z,1020.03
2019-02-14T02:10:05.081Z,1020.08
2019-02-14T02:11:05.109Z,1020.08
2019-02-14T02:12:06.136Z,1020.09
2019-02-14T02:13:05.138Z,1020.10
2019-02-14T02:14:06.165Z,1020.15
2019-02-14T02:15:05.172Z,1020.16
2019-02-14T02:16:05.192Z,1020.18
2019-02-14T02:17:06.215Z,1020.19
2019-02-14T02:18:05.219Z,1020.18
2019-02-14T02:19:06.250Z,1020.18
2019-02-14T02:20:05.258Z,1020.19
2019-02-14T02:21:06.457Z,1020.21
2019-02-14T02:22:06.311Z,1020.19
2019-02-14T02:23:05.307Z,1020.26
2019-02-14T02:24:06.341Z,1020.21
2019-02-14T02:25:05.348Z,1020.20
2019-02-14T02:26:05.350Z,1020.22
2019-02-14T02:27:06.386Z,1020.26
2019-02-14T02:28:05.381Z,1020.26
2019-02-14T02:29:06.425Z,1020.28
2019-02-14T02:30:05.427Z,1020.27
2019-02-14T02:31:05.437Z,1020.28
2019-02-14T02:32:06.463Z,1020.28
2019-02-14T02:33:05.477Z,1020.29
2019-02-14T02:34:06.502Z,1020.32
2019-02-14T02:35:05.512Z,1020.29
2019-02-14T02:36:05.530Z,1020.30
2019-02-14T02:37:06.548Z,1020.30
2019-02-14T02:38:05.562Z,1020.29
2019-02-14T02:39:06.593Z,1020.27
2019-02-14T02:40:05.591Z,1020.27
2019-02-14T02:41:05.603Z,1020.25
2019-02-14T02:42:06.660Z,1020.18
2019-02-14T02:43:05.639Z,1020.23
2019-02-14T02:44:06.679Z,1020.17
2019-02-14T02:45:05.687Z,1020.20
2019-02-14T02:46:05.688Z,1020.22
2019-02-14T02:47:06.743Z,1020.20
2019-02-14T02:48:05.729Z,1020.19
2019-02-14T02:49:06.780Z,1020.19
2019-02-14T02:50:05.758Z,1020.22
2019-02-14T02:51:05.772Z,1020.20
2019-02-14T02:52:06.802Z,1020.18
2019-02-14T02:53:05.811Z,1020.17
2019-02-14T02:54:06.839Z,1020.20
2019-02-14T02:55:05.842Z,1020.25
2019-02-14T02:56:05.855Z,1020.21
2019-02-14T02:57:06.908Z,1020.19
2019-02-14T02:58:05.902Z,1020.20
2019-02-14T02:59:06.921Z,1020.16
2019-02-14T03:00:05.931Z,1020.16
2019-02-14T03:01:05.954Z,1020.14
2019-02-14T03:02:06.979Z,1020.16
2019-02-14T03:03:06.003Z,1020.15
2019-02-14T03:04:07.016Z,1020.12
2019-02-14T03:05:06.037Z,1020.11
2019-02-14T03:06:10.602Z,1020.08
2019-02-14T03:07:07.063Z,1020.09
2019-02-14T03:08:06.066Z,1020.08
2019-02-14T03:09:07.104Z,1020.04
2019-02-14T03:10:06.105Z,1020.03
2019-02-14T03:11:06.120Z,1020.02
2019-02-14T03:12:07.148Z,1019.99
2019-02-14T03:13:06.150Z,1019.98
2019-02-14T03:14:07.179Z,1019.98
2019-02-14T03:15:06.183Z,1019.96
2019-02-14T03:16:06.203Z,1019.94
2019-02-14T03:17:07.226Z,1019.91
2019-02-14T03:18:06.246Z,1019.88
2019-02-14T03:19:07.264Z,1019.87
2019-02-14T03:20:06.272Z,1019.92
2019-02-14T03:21:06.356Z,1019.85
2019-02-14T03:22:07.323Z,1019.81
2019-02-14T03:23:06.369Z,1019.82
2019-02-14T03:24:07.359Z,1019.78
2019-02-14T03:25:06.364Z,1019.77
2019-02-14T03:26:06.382Z,1019.79
2019-02-14T03:27:07.410Z,1019.74
2019-02-14T03:28:06.410Z,1019.74
2019-02-14T03:29:07.451Z,1019.75
2019-02-14T03:30:06.457Z,1019.76
2019-02-14T03:31:06.480Z,1019.69
2019-02-14T03:32:08.499Z,1019.68
2019-02-14T03:33:07.521Z,1019.70
2019-02-14T03:34:07.507Z,1019.69
2019-02-14T03:35:06.539Z,1019.72
2019-02-14T03:36:06.560Z,1019.66
2019-02-14T03:37:07.578Z,1019.67
2019-02-14T03:38:06.594Z,1019.64
2019-02-14T03:39:07.612Z,1019.68
2019-02-14T03:40:06.622Z,1019.67
2019-02-14T03:41:06.632Z,1019.65
2019-02-14T03:42:07.669Z,1019.68
2019-02-14T03:43:06.669Z,1019.62
2019-02-14T03:44:07.704Z,1019.67
2019-02-14T03:45:06.710Z,1019.65
2019-02-14T03:46:06.728Z,1019.65
2019-02-14T03:47:07.755Z,1019.63
2019-02-14T03:48:06.760Z,1019.65
2019-02-14T03:49:07.799Z,1019.62
2019-02-14T03:50:06.798Z,1019.58
2019-02-14T03:51:06.821Z,1019.57
2019-02-14T03:52:07.861Z,1019.53
2019-02-14T03:53:06.852Z,1019.52
2019-02-14T03:54:07.879Z,1019.48
2019-02-14T03:55:06.882Z,1019.48
2019-02-14T03:56:06.925Z,1019.45
2019-02-14T03:57:07.934Z,1019.45
2019-02-14T03:58:06.937Z,1019.42
2019-02-14T03:59:07.969Z,1019.37
2019-02-14T04:00:07.046Z,1019.34
2019-02-14T04:01:07.001Z,1019.32
2019-02-14T04:02:08.022Z,1019.32
2019-02-14T04:03:07.030Z,1019.25
2019-02-14T04:04:08.078Z,1019.24
2019-02-14T04:05:07.061Z,1019.24
2019-02-14T04:06:07.084Z,1019.21
2019-02-14T04:07:08.110Z,1019.21
2019-02-14T04:08:07.156Z,1019.20
2019-02-14T04:09:08.153Z,1019.19
2019-02-14T04:10:07.152Z,1019.16
2019-02-14T04:11:07.170Z,1019.16
2019-02-14T04:12:08.198Z,1019.16
2019-02-14T04:13:07.212Z,1019.13
2019-02-14T04:14:08.229Z,1019.08
2019-02-14T04:15:07.240Z,1019.11
2019-02-14T04:16:07.254Z,1019.08
2019-02-14T04:17:08.305Z,1019.04
2019-02-14T04:18:07.296Z,1019.04
2019-02-14T04:19:08.323Z,1019.04
2019-02-14T04:20:07.331Z,1019.01
2019-02-14T04:21:07.346Z,1019.01
2019-02-14T04:22:08.385Z,1018.92
2019-02-14T04:23:07.384Z,1018.88
2019-02-14T04:24:08.424Z,1018.85
2019-02-14T04:25:07.419Z,1018.84
2019-02-14T04:26:07.448Z,1018.83
2019-02-14T04:27:08.462Z,1018.84
2019-02-14T04:28:07.469Z,1018.84
2019-02-14T04:29:08.502Z,1018.81
2019-02-14T04:30:07.523Z,1018.85
2019-02-14T04:31:07.529Z,1018.79
2019-02-14T04:32:08.554Z,1018.73
2019-02-14T04:33:07.562Z,1018.70
2019-02-14T04:34:08.590Z,1018.70
2019-02-14T04:35:07.595Z,1018.67
2019-02-14T04:36:07.666Z,1018.65
2019-02-14T04:37:08.650Z,1018.68
2019-02-14T04:38:07.659Z,1018.68
2019-02-14T04:39:08.689Z,1018.64
2019-02-14T04:40:07.699Z,1018.62
2019-02-14T04:41:07.699Z,1018.60
2019-02-14T04:42:08.733Z,1018.60
2019-02-14T04:43:07.743Z,1018.57
2019-02-14T04:44:08.774Z,1018.53
2019-02-14T04:45:12.549Z,1018.53
2019-02-14T04:46:07.798Z,1018.47
2019-02-14T04:47:08.825Z,1018.44
2019-02-14T04:48:07.891Z,1018.44
2019-02-14T04:49:08.865Z,1018.38
2019-02-14T04:50:07.865Z,1018.35
2019-02-14T04:51:07.988Z,1018.36
2019-02-14T04:52:08.921Z,1018.34
2019-02-14T04:53:07.934Z,1018.35
2019-02-14T04:54:08.959Z,1018.35
2019-02-14T04:55:07.955Z,1018.32
2019-02-14T04:56:07.979Z,1018.29
2019-02-14T04:57:09.000Z,1018.28
2019-02-14T04:58:08.018Z,1018.22
2019-02-14T04:59:09.079Z,1018.19
2019-02-14T05:00:09.161Z,1018.14
2019-02-14T05:01:08.069Z,1018.18
2019-02-14T05:02:09.098Z,1018.13
2019-02-14T05:03:08.115Z,1018.10
2019-02-14T05:04:09.136Z,1018.11
2019-02-14T05:05:08.140Z,1018.09
2019-02-14T05:06:08.155Z,1018.11
2019-02-14T05:07:09.184Z,1018.12
2019-02-14T05:08:08.245Z,1018.07
2019-02-14T05:09:09.223Z,1018.01
2019-02-14T05:10:08.622Z,1018.03
2019-02-14T05:11:08.240Z,1017.97
2019-02-14T05:12:09.283Z,1017.95
2019-02-14T05:13:08.291Z,1017.94
2019-02-14T05:14:09.311Z,1017.96
2019-02-14T05:15:08.327Z,1017.94
2019-02-14T05:16:08.335Z,1017.89
2019-02-14T05:17:09.394Z,1017.91
2019-02-14T05:18:08.370Z,1017.88
2019-02-14T05:19:09.400Z,1017.84
2019-02-14T05:20:08.411Z,1017.79
2019-02-14T05:21:08.440Z,1017.80
2019-02-14T05:22:09.459Z,1017.78
2019-02-14T05:23:08.476Z,1017.77
2019-02-14T05:24:09.503Z,1017.74
2019-02-14T05:25:08.533Z,1017.75
2019-02-14T05:26:08.516Z,1017.71
2019-02-14T05:27:09.565Z,1017.71
2019-02-14T05:28:08.563Z,1017.71
2019-02-14T05:29:09.585Z,1017.67
2019-02-14T05:30:08.599Z,1017.64
2019-02-14T05:31:08.625Z,1017.60
2019-02-14T05:32:09.647Z,1017.54
2019-02-14T05:33:08.761Z,1017.52
2019-02-14T05:34:09.683Z,1017.48
2019-02-14T05:35:08.688Z,1017.42
2019-02-14T05:36:09.330Z,1017.37
2019-02-14T05:37:09.746Z,1017.41
2019-02-14T05:38:08.747Z,1017.38
2019-02-14T05:39:09.792Z,1017.38
2019-02-14T05:40:08.782Z,1017.37
2019-02-14T05:41:08.807Z,1017.36
2019-02-14T05:42:09.827Z,1017.34
2019-02-14T05:43:08.836Z,1017.38
2019-02-14T05:44:09.876Z,1017.30
2019-02-14T05:45:08.912Z,1017.29
2019-02-14T05:46:08.895Z,1017.23
2019-02-14T05:47:09.926Z,1017.20
2019-02-14T05:48:08.927Z,1017.16
2019-02-14T05:49:09.955Z,1017.14
2019-02-14T05:50:08.960Z,1017.13
2019-02-14T05:51:08.978Z,1017.14
2019-02-14T05:52:10.015Z,1017.11
2019-02-14T05:53:10.054Z,1017.07
2019-02-14T05:54:10.048Z,1017.03
2019-02-14T05:55:09.052Z,1016.98
2019-02-14T05:56:09.087Z,1017.00
2019-02-14T05:57:10.117Z,1016.99
2019-02-14T05:58:09.117Z,1016.97
2019-02-14T05:59:10.234Z,1016.93
2019-02-14T06:00:09.193Z,1016.92
2019-02-14T06:01:09.164Z,1016.93
2019-02-14T06:02:10.209Z,1016.88
2019-02-14T06:03:09.205Z,1016.84
2019-02-14T06:04:10.241Z,1016.88
2019-02-14T06:05:09.236Z,1016.82
2019-02-14T06:06:09.261Z,1016.78
2019-02-14T06:07:10.288Z,1016.73
2019-02-14T06:08:09.290Z,1016.70
2019-02-14T06:09:10.323Z,1016.68
2019-02-14T06:10:09.333Z,1016.68
2019-02-14T06:11:09.354Z,1016.67
2019-02-14T06:12:10.388Z,1016.58
2019-02-14T06:13:09.393Z,1016.56
2019-02-14T06:14:10.433Z,1016.51
2019-02-14T06:15:09.421Z,1016.47
2019-02-14T06:16:09.448Z,1016.41
2019-02-14T06:17:10.467Z,1016.39
2019-02-14T06:18:09.487Z,1016.38
2019-02-14T06:19:10.528Z,1016.32
2019-02-14T06:20:09.518Z,1016.34
2019-02-14T06:21:09.532Z,1016.33
2019-02-14T06:22:10.565Z,1016.31
2019-02-14T06:23:09.575Z,1016.30
2019-02-14T06:24:10.601Z,1016.35
2019-02-14T06:25:09.608Z,1016.25
2019-02-14T06:26:09.643Z,1016.21
2019-02-14T06:27:10.655Z,1016.13
2019-02-14T06:28:09.668Z,1016.13
2019-02-14T06:29:10.700Z,1016.17
2019-02-14T06:30:09.703Z,1016.12
2019-02-14T06:31:09.717Z,1016.10
2019-02-14T06:32:10.753Z,1016.08
2019-02-14T06:33:09.757Z,1016.05
2019-02-14T06:34:10.790Z,1015.99
2019-02-14T06:35:09.793Z,1015.98
2019-02-14T06:36:09.810Z,1015.98
2019-02-14T06:37:10.843Z,1015.94
2019-02-14T06:38:09.852Z,1015.87
2019-02-14T06:39:10.878Z,1015.89
2019-02-14T06:40:09.888Z,1015.90
2019-02-14T06:41:09.911Z,1015.83
2019-02-14T06:42:10.938Z,1015.82
2019-02-14T06:43:09.939Z,1015.78
2019-02-14T06:44:10.977Z,1015.80
2019-02-14T06:45:09.979Z,1015.76
2019-02-14T06:46:09.996Z,1015.84
2019-02-14T06:47:11.028Z,1015.76
2019-02-14T06:48:10.035Z,1015.80
2019-02-14T06:49:11.069Z,1015.79
2019-02-14T06:50:10.071Z,1015.79
2019-02-14T06:51:10.098Z,1015.75
2019-02-14T06:52:11.121Z,1015.74
2019-02-14T06:53:10.137Z,1015.72
2019-02-14T06:54:11.161Z,1015.73
2019-02-14T06:55:10.166Z,1015.69
2019-02-14T06:56:10.182Z,1015.70
2019-02-14T06:57:11.219Z,1015.66
2019-02-14T06:58:10.226Z,1015.59
2019-02-14T06:59:11.252Z,1015.61
2019-02-14T07:00:10.259Z,1015.62
2019-02-14T07:01:10.281Z,1015.62
2019-02-14T07:02:11.310Z,1015.59
2019-02-14T07:03:10.377Z,1015.52
2019-02-14T07:04:11.354Z,1015.57
2019-02-14T07:05:10.347Z,1015.53
2019-02-14T07:06:10.382Z,1015.52
2019-02-14T07:07:18.281Z,1015.48
2019-02-14T07:08:10.407Z,1015.42
2019-02-14T07:09:11.439Z,1015.44
2019-02-14T07:10:10.484Z,1015.40
2019-02-14T07:11:10.461Z,1015.38
2019-02-14T07:12:11.520Z,1015.38
2019-02-14T07:13:10.495Z,1015.38
2019-02-14T07:14:11.626Z,1015.40
2019-02-14T07:15:10.536Z,1015.32
2019-02-14T07:16:10.557Z,1015.32
2019-02-14T07:17:11.588Z,1015.32
2019-02-14T07:18:10.598Z,1015.34
2019-02-14T07:19:11.625Z,1015.28
2019-02-14T07:20:10.634Z,1015.32
2019-02-14T07:21:10.651Z,1015.28
2019-02-14T07:22:11.680Z,1015.26
2019-02-14T07:23:10.686Z,1015.21
2019-02-14T07:24:11.713Z,1015.27
2019-02-14T07:25:10.724Z,1015.26
2019-02-14T07:26:10.741Z,1015.29
2019-02-14T07:27:11.768Z,1015.22
2019-02-14T07:28:10.784Z,1015.16
2019-02-14T07:29:11.815Z,1015.19
2019-02-14T07:30:10.840Z,1015.16
2019-02-14T07:31:10.834Z,1015.18
2019-02-14T07:32:11.868Z,1015.12
2019-02-14T07:33:10.885Z,1015.14
2019-02-14T07:34:11.932Z,1015.15
2019-02-14T07:35:10.908Z,1015.19
2019-02-14T07:36:10.962Z,1015.11
2019-02-14T07:37:11.958Z,1015.14
2019-02-14T07:38:11.015Z,1015.08
2019-02-14T07:39:11.998Z,1015.06
2019-02-14T07:40:11.010Z,1015.07
2019-02-14T07:41:11.089Z,1015.01
2019-02-14T07:42:12.062Z,1015.03
2019-02-14T07:43:11.057Z,1015.01
2019-02-14T07:44:12.091Z,1014.98
2019-02-14T07:45:11.093Z,1014.98
2019-02-14T07:46:11.113Z,1014.97
2019-02-14T07:47:12.149Z,1014.98
2019-02-14T07:48:11.146Z,1014.95
2019-02-14T07:49:12.178Z,1014.96
2019-02-14T07:50:11.182Z,1014.92
2019-02-14T07:51:11.214Z,1014.91
2019-02-14T07:52:12.238Z,1014.85
2019-02-14T07:53:11.242Z,1014.96
2019-02-14T07:54:12.274Z,1014.88
2019-02-14T07:55:11.360Z,1014.94
2019-02-14T07:56:11.303Z,1014.90
2019-02-14T07:57:12.341Z,1014.96
2019-02-14T07:58:11.342Z,1014.90
2019-02-14T07:59:12.371Z,1014.91
2019-02-14T08:00:11.374Z,1014.91
2019-02-14T08:01:11.387Z,1014.90
2019-02-14T08:02:12.439Z,1014.90
2019-02-14T08:03:11.427Z,1014.96
2019-02-14T08:04:12.484Z,1014.92
2019-02-14T08:05:11.471Z,1014.86
2019-02-14T08:06:11.492Z,1014.88
2019-02-14T08:07:13.207Z,1014.87
2019-02-14T08:08:11.524Z,1014.87
2019-02-14T08:09:12.546Z,1014.85
2019-02-14T08:10:11.554Z,1014.86
2019-02-14T08:11:11.578Z,1014.88
2019-02-14T08:12:12.605Z,1014.88
2019-02-14T08:13:11.629Z,1014.84
2019-02-14T08:14:12.643Z,1014.80
2019-02-14T08:15:11.652Z,1014.87
2019-02-14T08:16:11.670Z,1014.82
2019-02-14T08:17:12.696Z,1014.84
2019-02-14T08:18:11.709Z,1014.83
2019-02-14T08:19:12.754Z,1014.83
2019-02-14T08:20:11.759Z,1014.83
2019-02-14T08:21:11.796Z,1014.80
2019-02-14T08:22:12.810Z,1014.79
2019-02-14T08:23:12.487Z,1014.81
2019-02-14T08:24:12.859Z,1014.77
2019-02-14T08:25:11.840Z,1014.78
2019-02-14T08:26:11.885Z,1014.79
2019-02-14T08:27:12.896Z,1014.79
2019-02-14T08:28:11.903Z,1014.76
2019-02-14T08:29:12.933Z,1014.80
2019-02-14T08:30:11.935Z,1014.79
2019-02-14T08:31:11.952Z,1014.74
2019-02-14T08:32:12.986Z,1014.75
2019-02-14T08:33:11.984Z,1014.72
2019-02-14T08:34:13.011Z,1014.76
2019-02-14T08:35:12.018Z,1014.77
2019-02-14T08:36:12.037Z,1014.73
2019-02-14T08:37:13.069Z,1014.78
2019-02-14T08:38:12.072Z,1014.80
2019-02-14T08:39:13.100Z,1014.78
2019-02-14T08:40:12.113Z,1014.78
2019-02-14T08:41:12.155Z,1014.76
2019-02-14T08:42:13.159Z,1014.75
2019-02-14T08:43:12.169Z,1014.74
2019-02-14T08:44:13.201Z,1014.77
2019-02-14T08:45:12.202Z,1014.77
2019-02-14T08:46:12.219Z,1014.73
2019-02-14T08:47:13.254Z,1014.71
2019-02-14T08:48:12.278Z,1014.72
2019-02-14T08:49:13.306Z,1014.74
2019-02-14T08:50:12.322Z,1014.75
2019-02-14T08:51:12.325Z,1014.71
2019-02-14T08:52:13.353Z,1014.71
2019-02-14T08:53:12.356Z,1014.77
2019-02-14T08:54:13.387Z,1014.73
2019-02-14T08:55:12.394Z,1014.71
2019-02-14T08:56:12.413Z,1014.76
2019-02-14T08:57:13.450Z,1014.72
2019-02-14T08:58:12.450Z,1014.72
2019-02-14T08:59:13.493Z,1014.70
2019-02-14T09:00:12.507Z,1014.71
2019-02-14T09:01:12.500Z,1014.66
2019-02-14T09:02:13.533Z,1014.67
2019-02-14T09:03:12.567Z,1014.67
2019-02-14T09:04:13.563Z,1014.70
2019-02-14T09:05:12.578Z,1014.71
2019-02-14T09:06:12.592Z,1014.68
2019-02-14T09:07:13.630Z,1014.67
2019-02-14T09:08:12.633Z,1014.68
2019-02-14T09:09:13.658Z,1014.64
2019-02-14T09:10:12.678Z,1014.63
2019-02-14T09:11:12.680Z,1014.64
2019-02-14T09:12:13.714Z,1014.68
2019-02-14T09:13:17.313Z,1014.73
2019-02-14T09:14:13.749Z,1014.72
2019-02-14T09:15:12.759Z,1014.76
2019-02-14T09:16:12.785Z,1014.72
2019-02-14T09:17:13.807Z,1014.78
2019-02-14T09:18:12.817Z,1014.76
2019-02-14T09:19:13.896Z,1014.71
2019-02-14T09:20:12.846Z,1014.73
2019-02-14T09:21:12.868Z,1014.67
2019-02-14T09:22:13.898Z,1014.72
2019-02-14T09:23:14.604Z,1014.69
2019-02-14T09:24:13.946Z,1014.69
2019-02-14T09:25:12.947Z,1014.70
2019-02-14T09:26:12.962Z,1014.73
2019-02-14T09:27:14.002Z,1014.73
2019-02-14T09:28:12.998Z,1014.71
2019-02-14T09:29:14.424Z,1014.71
2019-02-14T09:30:13.034Z,1014.71
2019-02-14T09:31:13.068Z,1014.77
2019-02-14T09:32:14.082Z,1014.72
2019-02-14T09:33:13.160Z,1014.76
2019-02-14T09:34:14.115Z,1014.68
2019-02-14T09:35:13.144Z,1014.73
2019-02-14T09:36:13.148Z,1014.75
2019-02-14T09:37:14.178Z,1014.74
2019-02-14T09:38:13.185Z,1014.76
2019-02-14T09:39:14.269Z,1014.71
2019-02-14T09:40:13.223Z,1014.78
2019-02-14T09:41:13.397Z,1014.77
2019-02-14T09:42:14.372Z,1014.85
2019-02-14T09:43:13.328Z,1014.85
2019-02-14T09:44:14.592Z,1014.82
2019-02-14T09:45:13.430Z,1014.85
2019-02-14T09:46:14.188Z,1014.90
2019-02-14T09:47:14.358Z,1014.90
2019-02-14T09:48:13.603Z,1014.90
2019-02-14T09:49:14.413Z,1014.94
2019-02-14T09:50:13.414Z,1014.91
2019-02-14T09:51:13.426Z,1014.92
2019-02-14T09:52:14.468Z,1014.92
2019-02-14T09:53:13.466Z,1014.95
2019-02-14T09:54:14.494Z,1014.95
2019-02-14T09:55:13.504Z,1014.96
2019-02-14T09:56:13.579Z,1014.97
2019-02-14T09:57:14.728Z,1015.00
2019-02-14T09:58:13.771Z,1015.02
2019-02-14T09:59:14.616Z,1014.99
2019-02-14T10:00:13.620Z,1015.07
2019-02-14T10:01:13.610Z,1015.06
2019-02-14T10:02:14.641Z,1015.14
2019-02-14T10:03:13.648Z,1015.11
2019-02-14T10:04:14.743Z,1015.16
2019-02-14T10:05:13.696Z,1015.17
2019-02-14T10:06:13.702Z,1015.16
2019-02-14T10:07:14.767Z,1015.15
2019-02-14T10:08:13.741Z,1015.21
2019-02-14T10:09:14.779Z,1015.19
2019-02-14T10:10:13.874Z,1015.25
2019-02-14T10:11:13.790Z,1015.31
2019-02-14T10:12:14.825Z,1015.27
2019-02-14T10:13:13.832Z,1015.30
2019-02-14T10:14:14.876Z,1015.26
2019-02-14T10:15:13.866Z,1015.25
2019-02-14T10:16:14.731Z,1015.28
2019-02-14T10:17:22.026Z,1015.27
2019-02-14T10:18:13.930Z,1015.28
2019-02-14T10:19:14.947Z,1015.25
2019-02-14T10:20:13.966Z,1015.34
2019-02-14T10:21:13.979Z,1015.26
2019-02-14T10:22:15.005Z,1015.33
2019-02-14T10:23:14.011Z,1015.35
2019-02-14T10:24:16.063Z,1015.34
2019-02-14T10:25:14.055Z,1015.39
2019-02-14T10:26:14.069Z,1015.37
2019-02-14T10:27:15.129Z,1015.44
2019-02-14T10:28:14.112Z,1015.44
2019-02-14T10:29:15.139Z,1015.48
2019-02-14T10:30:14.149Z,1015.46
2019-02-14T10:31:14.160Z,1015.46
2019-02-14T10:32:15.234Z,1015.48
2019-02-14T10:33:14.202Z,1015.48
2019-02-14T10:34:15.237Z,1015.49
2019-02-14T10:35:14.240Z,1015.52
2019-02-14T10:36:14.259Z,1015.48
2019-02-14T10:37:15.296Z,1015.49
2019-02-14T10:38:21.896Z,1015.51
2019-02-14T10:39:15.362Z,1015.53
2019-02-14T10:40:14.327Z,1015.50
2019-02-14T10:41:14.350Z,1015.50
2019-02-14T10:42:15.373Z,1015.51
2019-02-14T10:43:14.381Z,1015.55
2019-02-14T10:44:15.422Z,1015.59
2019-02-14T10:45:14.421Z,1015.61
2019-02-14T10:46:14.435Z,1015.64
2019-02-14T10:47:15.478Z,1015.61
2019-02-14T10:48:14.471Z,1015.66
2019-02-14T10:49:15.507Z,1015.68
2019-02-14T10:50:14.510Z,1015.69
2019-02-14T10:51:14.537Z,1015.69
2019-02-14T10:52:15.571Z,1015.71
2019-02-14T10:53:14.585Z,1015.78
2019-02-14T10:54:15.652Z,1015.77
2019-02-14T10:55:14.665Z,1015.73
2019-02-14T10:56:14.619Z,1015.77
2019-02-14T10:57:15.661Z,1015.76
2019-02-14T10:58:14.652Z,1015.75
2019-02-14T10:59:15.721Z,1015.76
2019-02-14T11:00:16.167Z,1015.76
2019-02-14T11:01:14.714Z,1015.79
2019-02-14T11:02:15.761Z,1015.82
2019-02-14T11:03:14.749Z,1015.82
2019-02-14T11:04:15.773Z,1015.81
2019-02-14T11:05:14.782Z,1015.79
2019-02-14T11:06:14.800Z,1015.84
2019-02-14T11:07:15.828Z,1015.89
2019-02-14T11:08:14.839Z,1015.83
2019-02-14T11:09:15.871Z,1015.92
2019-02-14T11:10:14.878Z,1015.95
2019-02-14T11:11:14.902Z,1015.97
2019-02-14T11:12:15.925Z,1016.00
2019-02-14T11:13:14.928Z,1016.01
2019-02-14T11:14:15.961Z,1015.97
2019-02-14T11:15:14.963Z,1016.01
2019-02-14T11:16:14.979Z,1016.00
2019-02-14T11:17:16.016Z,1016.06
2019-02-14T11:18:15.019Z,1016.04
2019-02-14T11:19:16.051Z,1016.07
2019-02-14T11:20:15.065Z,1016.09
2019-02-14T11:21:15.074Z,1016.10
2019-02-14T11:22:16.107Z,1016.08
2019-02-14T11:23:15.107Z,1016.08
2019-02-14T11:24:16.140Z,1016.08
2019-02-14T11:25:15.154Z,1016.12
2019-02-14T11:26:15.166Z,1016.12
2019-02-14T11:27:16.196Z,1016.12
2019-02-14T11:28:15.199Z,1016.12
2019-02-14T11:29:16.230Z,1016.13
2019-02-14T11:30:15.241Z,1016.17
2019-02-14T11:31:15.255Z,1016.19
2019-02-14T11:32:16.343Z,1016.20
2019-02-14T11:33:15.299Z,1016.23
2019-02-14T11:34:16.321Z,1016.23
2019-02-14T11:35:15.331Z,1016.22
2019-02-14T11:36:15.345Z,1016.23
2019-02-14T11:37:16.377Z,1016.27
2019-02-14T11:38:15.378Z,1016.28
2019-02-14T11:39:16.409Z,1016.36
2019-02-14T11:40:15.475Z,1016.35
2019-02-14T11:41:16.986Z,1016.32
2019-02-14T11:42:16.472Z,1016.34
2019-02-14T11:43:15.474Z,1016.36
2019-02-14T11:44:16.504Z,1016.40
2019-02-14T11:45:15.507Z,1016.44
2019-02-14T11:46:15.524Z,1016.42
2019-02-14T11:47:16.561Z,1016.49
2019-02-14T11:48:15.560Z,1016.47
2019-02-14T11:49:16.594Z,1016.48
2019-02-14T11:50:15.593Z,1016.46
2019-02-14T11:51:15.621Z,1016.47
2019-02-14T11:52:16.653Z,1016.49
2019-02-14T11:53:15.648Z,1016.51
2019-02-14T11:54:16.681Z,1016.51
2019-02-14T11:55:15.685Z,1016.47
2019-02-14T11:56:15.727Z,1016.47
2019-02-14T11:57:16.736Z,1016.52
2019-02-14T11:58:15.742Z,1016.51
2019-02-14T11:59:16.772Z,1016.58
2019-02-14T12:00:15.774Z,1016.61
2019-02-14T12:01:15.795Z,1016.63
2019-02-14T12:02:16.853Z,1016.66
2019-02-14T12:03:15.829Z,1016.64
2019-02-14T12:04:16.856Z,1016.62
2019-02-14T12:05:15.869Z,1016.65